createdAt,value
2018-05-26T05:53:39.917Z,99.90
2018-05-26T05:56:08.198Z,99.90
2018-05-26T05:58:37.448Z,99.90
2018-05-26T06:01:04.957Z,99.90
2018-05-26T06:03:32.452Z,99.90
2018-05-26T06:05:59.951Z,99.90
2018-05-26T06:08:27.437Z,99.90
2018-05-26T06:10:54.942Z,99.90
2018-05-26T06:13:22.439Z,99.90
2018-05-26T06:15:50.706Z,99.90
2018-05-26T06:18:18.967Z,99.90
2018-05-26T06:20:46.464Z,99.90
2018-05-26T06:23:13.959Z,99.90
2018-05-26T06:25:41.477Z,99.90
2018-05-26T06:28:09.727Z,99.90
2018-05-26T06:30:37.244Z,99.90
2018-05-26T06:33:04.743Z,99.90
2018-05-26T06:35:32.255Z,99.90
2018-05-26T06:37:59.756Z,99.90
2018-05-26T06:40:27.266Z,99.90
2018-05-26T06:42:54.763Z,99.90
2018-05-26T06:45:22.301Z,99.90
2018-05-26T06:47:49.788Z,99.90
2018-05-26T06:50:17.290Z,99.90
2018-05-26T06:52:44.796Z,99.90
2018-05-26T06:55:12.299Z,99.90
2018-05-26T06:57:39.798Z,99.90
2018-05-26T07:00:07.287Z,99.90
2018-05-26T07:02:35.570Z,99.90
2018-05-26T07:05:03.864Z,99.90
2018-05-26T07:07:32.126Z,99.90
2018-05-26T07:10:00.387Z,99.90
2018-05-26T07:12:27.898Z,99.90
2018-05-26T07:14:55.411Z,99.90
2018-05-26T07:17:22.930Z,99.90
2018-05-26T07:19:50.422Z,99.90
2018-05-26T07:22:17.932Z,99.90
2018-05-26T07:24:45.455Z,99.90
2018-05-26T07:27:12.956Z,99.90
2018-05-26T07:29:40.470Z,99.90
2018-05-26T07:32:07.994Z,99.90
2018-05-26T07:34:35.483Z,99.90
2018-05-26T07:37:03.771Z,99.90
2018-05-26T07:39:32.035Z,99.90
2018-05-26T07:41:59.540Z,99.90
2018-05-26T07:44:27.034Z,99.90
2018-05-26T07:46:54.547Z,99.90
2018-05-26T07:49:22.061Z,99.90
2018-05-26T07:51:49.554Z,99.90
2018-05-26T07:54:17.061Z,99.90
2018-05-26T07:56:44.562Z,99.90
2018-05-26T07:59:12.820Z,99.90
2018-05-26T08:01:40.324Z,99.90
2018-05-26T08:04:07.811Z,99.90
2018-05-26T08:06:35.373Z,99.90
2018-05-26T08:09:02.864Z,99.90
2018-05-26T08:11:31.130Z,99.90
2018-05-26T08:13:59.404Z,99.90
2018-05-26T08:16:26.905Z,99.90
2018-05-26T08:18:54.405Z,99.90
2018-05-26T08:21:21.903Z,99.90
2018-05-26T08:23:50.170Z,99.90
2018-05-26T08:26:18.647Z,99.90
2018-05-26T08:28:46.147Z,99.90
2018-05-26T08:31:13.658Z,99.00
2018-05-26T08:33:41.155Z,99.30
2018-05-26T08:36:08.774Z,96.50
2018-05-26T08:38:40.089Z,99.10
2018-05-26T08:41:07.631Z,96.30
2018-05-26T08:43:35.118Z,95.80
2018-05-26T08:46:02.638Z,93.40
2018-05-26T08:48:30.137Z,92.10
2018-05-26T08:51:04.206Z,90.30
2018-05-26T08:53:31.726Z,89.70
2018-05-26T08:55:59.355Z,80.70
2018-05-26T08:58:26.874Z,85.50
2018-05-26T09:00:55.163Z,84.80
2018-05-26T09:03:22.722Z,84.60
2018-05-26T09:05:50.251Z,78.90
2018-05-26T09:08:17.743Z,77.90
2018-05-26T09:10:45.236Z,73.50
2018-05-26T09:13:12.722Z,77.30
2018-05-26T09:15:40.216Z,70.90
2018-05-26T09:18:07.779Z,64.10
2018-05-26T09:20:35.318Z,62.50
2018-05-26T09:23:03.575Z,57.70
2018-05-26T09:25:31.174Z,57.60
2018-05-26T09:27:58.563Z,56.10
2018-05-26T09:30:26.080Z,54.60
2018-05-26T09:32:54.334Z,48.30
2018-05-26T09:35:21.831Z,48.20
2018-05-26T09:37:49.326Z,42.70
2018-05-26T09:40:16.830Z,43.30
2018-05-26T09:42:45.074Z,42.00
2018-05-26T09:45:12.575Z,41.90
2018-05-26T09:47:40.059Z,41.80
2018-05-26T09:50:07.573Z,39.40
2018-05-26T09:52:35.831Z,40.10
2018-05-26T09:55:03.334Z,39.90
2018-05-26T09:57:30.835Z,37.80
2018-05-26T09:59:58.330Z,35.50
2018-05-26T10:02:26.606Z,36.60
2018-05-26T10:04:54.862Z,35.00
2018-05-26T10:07:22.468Z,35.10
2018-05-26T10:09:49.969Z,34.30
2018-05-26T10:12:17.471Z,35.20
2018-05-26T10:14:44.967Z,34.10
2018-05-26T10:17:12.479Z,34.70
2018-05-26T10:19:39.980Z,35.80
2018-05-26T10:22:07.484Z,33.70
2018-05-26T10:24:35.793Z,31.30
2018-05-26T10:27:03.333Z,31.20
2018-05-26T10:29:31.592Z,29.80
2018-05-26T10:31:59.091Z,29.70
2018-05-26T10:34:26.586Z,29.00
2018-05-26T10:36:54.078Z,29.40
2018-05-26T10:39:22.358Z,30.70
2018-05-26T10:41:50.618Z,28.60
2018-05-26T10:44:18.150Z,28.60
2018-05-26T10:46:45.650Z,30.20
2018-05-26T10:49:13.902Z,28.50
2018-05-26T10:51:41.434Z,28.50
2018-05-26T10:54:08.909Z,28.80
2018-05-26T10:56:36.410Z,28.40
2018-05-26T10:59:03.899Z,29.10
2018-05-26T11:01:31.393Z,27.80
2018-05-26T11:03:58.890Z,27.30
2018-05-26T11:06:26.383Z,26.70
2018-05-26T11:08:53.894Z,26.70
2018-05-26T11:11:22.156Z,26.40
2018-05-26T11:13:49.639Z,26.40
2018-05-26T11:16:17.216Z,26.60
2018-05-26T11:18:44.676Z,26.60
2018-05-26T11:21:12.169Z,27.80
2018-05-26T11:23:39.666Z,27.70
2018-05-26T11:26:08.009Z,26.80
2018-05-26T11:28:35.445Z,26.90
2018-05-26T11:31:03.179Z,27.10
2018-05-26T11:33:30.634Z,26.40
2018-05-26T11:35:58.125Z,26.80
2018-05-26T11:38:25.615Z,25.30
2018-05-26T11:40:53.106Z,26.50
2018-05-26T11:43:20.592Z,24.80
2018-05-26T11:45:48.161Z,25.10
2018-05-26T11:48:15.649Z,24.30
2018-05-26T11:50:43.146Z,25.00
2018-05-26T11:53:11.072Z,24.00
2018-05-26T11:55:38.578Z,24.60
2018-05-26T11:58:06.091Z,24.10
2018-05-26T12:00:34.382Z,24.70
2018-05-26T12:03:02.700Z,25.50
2018-05-26T12:05:30.196Z,25.40
2018-05-26T12:07:57.683Z,24.20
2018-05-26T12:10:25.961Z,25.70
2018-05-26T12:12:54.214Z,23.90
2018-05-26T12:15:21.715Z,23.90
2018-05-26T12:17:49.224Z,24.10
2018-05-26T12:20:16.737Z,23.20
2018-05-26T12:22:44.229Z,22.90
2018-05-26T12:25:11.718Z,22.90
2018-05-26T12:27:39.991Z,23.10
2018-05-26T12:30:07.554Z,23.10
2018-05-26T12:32:35.835Z,22.70
2018-05-26T12:35:04.085Z,21.70
2018-05-26T12:37:31.583Z,21.60
2018-05-26T12:39:59.902Z,23.10
2018-05-26T12:42:28.125Z,22.60
2018-05-26T12:44:56.375Z,22.70
2018-05-26T12:47:23.870Z,23.20
2018-05-26T12:49:52.123Z,22.10
2018-05-26T12:52:19.623Z,22.20
2018-05-26T12:54:47.120Z,21.70
2018-05-26T12:57:14.610Z,21.80
2018-05-26T12:59:42.906Z,22.50
2018-05-26T13:02:11.182Z,21.20
2018-05-26T13:04:38.670Z,21.20
2018-05-26T13:07:06.187Z,21.60
2018-05-26T13:09:34.475Z,21.60
2018-05-26T13:12:01.970Z,21.70
2018-05-26T13:14:29.458Z,21.60
2018-05-26T13:16:57.734Z,24.40
2018-05-26T13:19:25.222Z,25.50
2018-05-26T13:21:53.523Z,27.30
2018-05-26T13:24:24.519Z,27.20
2018-05-26T13:26:52.018Z,27.50
2018-05-26T13:29:19.506Z,28.40
2018-05-26T13:31:47.004Z,28.70
2018-05-26T13:34:15.292Z,29.80
2018-05-26T13:36:42.793Z,29.80
2018-05-26T13:39:10.278Z,30.00
2018-05-26T13:41:37.778Z,30.50
2018-05-26T13:44:06.207Z,31.40
2018-05-26T13:46:33.730Z,30.30
2018-05-26T13:49:01.213Z,29.20
2018-05-26T13:51:29.539Z,30.00
2018-05-26T13:53:57.852Z,29.40
2018-05-26T13:56:26.132Z,31.20
2018-05-26T13:58:54.365Z,31.40
2018-05-26T14:01:22.623Z,31.30
2018-05-26T14:03:50.105Z,31.30
2018-05-26T14:06:18.393Z,31.70
2018-05-26T14:08:45.910Z,31.70
2018-05-26T14:11:13.432Z,32.50
2018-05-26T14:13:40.929Z,32.30
2018-05-26T14:16:08.459Z,30.30
2018-05-26T14:18:35.942Z,30.30
2018-05-26T14:21:03.436Z,28.30
2018-05-26T14:23:30.958Z,27.00
2018-05-26T14:25:58.453Z,27.90
2018-05-26T14:28:27.634Z,27.50
2018-05-26T14:30:55.118Z,27.50
2018-05-26T14:33:22.678Z,28.20
2018-05-26T14:35:50.175Z,30.90
2018-05-26T14:38:17.665Z,30.90
2018-05-26T14:40:45.149Z,30.30
2018-05-26T14:43:12.642Z,33.10
2018-05-26T14:45:40.138Z,32.60
2018-05-26T14:48:07.628Z,33.00
2018-05-26T14:50:35.124Z,32.80
2018-05-26T14:53:02.636Z,32.00
2018-05-26T14:55:30.900Z,31.90
2018-05-26T14:57:59.181Z,31.70
2018-05-26T15:00:27.452Z,30.80
2018-05-26T15:02:55.697Z,30.80
2018-05-26T15:05:23.196Z,30.70
2018-05-26T15:07:51.447Z,32.70
2018-05-26T15:10:18.945Z,32.70
2018-05-26T15:12:46.466Z,32.30
2018-05-26T15:15:13.937Z,33.00
2018-05-26T15:17:42.182Z,33.80
2018-05-26T15:20:09.690Z,33.80
2018-05-26T15:22:37.192Z,32.40
2018-05-26T15:25:04.705Z,33.60
2018-05-26T15:27:32.977Z,32.80
2018-05-26T15:30:01.234Z,31.90
2018-05-26T15:32:28.727Z,31.80
2018-05-26T15:34:56.266Z,35.50
2018-05-26T15:37:24.527Z,34.60
2018-05-26T15:39:52.104Z,34.60
2018-05-26T15:42:20.420Z,34.30
2018-05-26T15:44:48.634Z,34.60
2018-05-26T15:47:16.130Z,34.60
2018-05-26T15:49:44.592Z,33.60
2018-05-26T15:52:12.856Z,34.10
2018-05-26T15:54:40.357Z,34.00
2018-05-26T15:57:07.851Z,35.00
2018-05-26T15:59:35.355Z,34.70
2018-05-26T16:02:03.634Z,34.90
2018-05-26T16:04:31.212Z,34.90
2018-05-26T16:06:58.705Z,36.00
2018-05-26T16:09:26.234Z,37.30
2018-05-26T16:11:53.742Z,35.50
2018-05-26T16:14:25.033Z,35.90
2018-05-26T16:16:52.538Z,36.00
2018-05-26T16:19:20.027Z,35.50
2018-05-26T16:21:48.293Z,37.20
2018-05-26T16:24:16.549Z,37.10
2018-05-26T16:26:44.058Z,37.10
2018-05-26T16:29:11.599Z,37.90
2018-05-26T16:31:39.874Z,36.90
2018-05-26T16:34:08.142Z,36.80
2018-05-26T16:36:36.431Z,35.50
2018-05-26T16:39:03.951Z,35.50
2018-05-26T16:41:31.456Z,36.70
2018-05-26T16:43:58.945Z,37.90
2018-05-26T16:46:26.454Z,39.20
2018-05-26T16:48:54.724Z,36.80
2018-05-26T16:51:22.244Z,36.70
2018-05-26T16:53:49.745Z,37.30
2018-05-26T16:56:18.055Z,37.40
2018-05-26T16:58:45.585Z,37.00
2018-05-26T17:01:13.075Z,38.10
2018-05-26T17:03:40.574Z,39.70
2018-05-26T17:06:08.075Z,41.20
2018-05-26T17:08:36.340Z,40.50
2018-05-26T17:11:04.677Z,40.10
2018-05-26T17:13:32.153Z,40.10
2018-05-26T17:16:00.501Z,40.00
2018-05-26T17:18:28.018Z,39.90
2018-05-26T17:20:56.312Z,41.40
2018-05-26T17:23:23.808Z,41.40
2018-05-26T17:25:51.306Z,39.70
2018-05-26T17:28:19.588Z,39.40
2018-05-26T17:30:47.895Z,39.30
2018-05-26T17:33:16.121Z,40.20
2018-05-26T17:35:43.610Z,40.10
2018-05-26T17:38:11.104Z,39.40
2018-05-26T17:40:38.611Z,39.70
2018-05-26T17:43:10.218Z,39.60
2018-05-26T17:45:37.701Z,39.60
2018-05-26T17:48:05.202Z,40.80
2018-05-26T17:50:32.702Z,42.40
2018-05-26T17:53:00.188Z,43.80
2018-05-26T17:55:28.484Z,44.60
2018-05-26T17:57:56.787Z,45.00
2018-05-26T18:00:24.297Z,45.00
2018-05-26T18:02:53.339Z,46.90
2018-05-26T18:05:20.849Z,46.90
2018-05-26T18:07:49.104Z,47.70
2018-05-26T18:10:16.609Z,47.70
2018-05-26T18:12:44.896Z,46.80
2018-05-26T18:15:12.455Z,46.80
2018-05-26T18:17:39.899Z,47.30
2018-05-26T18:20:08.193Z,48.10
2018-05-26T18:22:35.704Z,48.00
2018-05-26T18:25:03.208Z,48.50
2018-05-26T18:27:30.700Z,50.20
2018-05-26T18:29:58.196Z,49.10
2018-05-26T18:32:25.687Z,48.70
2018-05-26T18:34:53.202Z,48.90
2018-05-26T18:37:20.703Z,49.40
2018-05-26T18:39:48.986Z,49.00
2018-05-26T18:42:16.491Z,48.90
2018-05-26T18:44:47.031Z,49.90
2018-05-26T18:47:14.549Z,50.80
2018-05-26T18:49:42.035Z,51.30
2018-05-26T18:52:09.526Z,52.20
2018-05-26T18:54:38.315Z,52.50
2018-05-26T18:57:06.579Z,52.60
2018-05-26T18:59:34.066Z,52.50
2018-05-26T19:02:01.570Z,53.20
2018-05-26T19:04:29.102Z,53.60
2018-05-26T19:06:56.624Z,54.00
2018-05-26T19:09:27.830Z,54.70
2018-05-26T19:11:56.091Z,55.10
2018-05-26T19:14:23.578Z,55.20
2018-05-26T19:16:52.976Z,55.60
2018-05-26T19:19:20.477Z,56.10
2018-05-26T19:21:48.009Z,56.90
2018-05-26T19:24:15.502Z,57.60
2018-05-26T19:26:43.003Z,57.80
2018-05-26T19:29:10.488Z,58.60
2018-05-26T19:31:38.761Z,60.00
2018-05-26T19:34:06.242Z,60.00
2018-05-26T19:36:34.499Z,64.10
2018-05-26T19:39:02.014Z,64.00
2018-05-26T19:41:29.568Z,67.10
2018-05-26T19:43:57.083Z,69.00
2018-05-26T19:46:24.586Z,72.00
2018-05-26T19:48:52.075Z,76.60
2018-05-26T19:51:19.591Z,81.20
2018-05-26T19:53:47.078Z,85.60
2018-05-26T19:56:14.583Z,89.30
2018-05-26T19:58:42.833Z,92.60
2018-05-26T20:01:10.322Z,92.60
2018-05-26T20:03:38.568Z,94.20
2018-05-26T20:06:06.124Z,94.20
2018-05-26T20:08:33.635Z,94.70
2018-05-26T20:11:01.139Z,96.10
2018-05-26T20:13:28.628Z,96.90
2018-05-26T20:15:56.893Z,98.00
2018-05-26T20:18:24.391Z,98.00
2018-05-26T20:20:51.884Z,98.20
2018-05-26T20:23:19.375Z,99.40
2018-05-26T20:25:47.635Z,99.90
2018-05-26T20:28:15.113Z,99.90
2018-05-26T20:30:43.399Z,99.90
2018-05-26T20:33:11.014Z,99.90
2018-05-26T20:35:38.511Z,99.90
2018-05-26T20:38:06.770Z,99.90
2018-05-26T20:40:34.282Z,99.90
2018-05-26T20:43:01.779Z,99.90
2018-05-26T20:45:29.279Z,99.90
2018-05-26T20:47:56.783Z,99.90
2018-05-26T20:50:24.278Z,99.90
2018-05-26T20:52:52.535Z,99.90
2018-05-26T20:55:20.030Z,99.90
2018-05-26T20:57:47.513Z,99.90
2018-05-26T21:00:15.023Z,99.90
2018-05-26T21:02:43.270Z,99.90
2018-05-26T21:05:10.771Z,99.90
2018-05-26T21:07:39.030Z,99.90
2018-05-26T21:10:07.304Z,99.90
2018-05-26T21:12:34.794Z,99.90
2018-05-26T21:15:02.296Z,99.90
2018-05-26T21:17:29.827Z,99.90
2018-05-26T21:19:57.324Z,99.90
2018-05-26T21:22:24.820Z,99.90
2018-05-26T21:24:53.069Z,99.90
2018-05-26T21:27:20.573Z,99.90
2018-05-26T21:29:48.068Z,99.90
2018-05-26T21:32:15.568Z,99.90
2018-05-26T21:34:43.086Z,99.90
2018-05-26T21:37:10.584Z,99.90
2018-05-26T21:39:38.842Z,99.90
2018-05-26T21:42:07.114Z,99.90
2018-05-26T21:44:35.130Z,99.90
2018-05-26T21:47:02.637Z,99.90
2018-05-26T21:49:30.151Z,99.90
2018-05-26T21:51:57.662Z,99.90
2018-05-26T21:54:25.161Z,99.90
2018-05-26T21:56:52.700Z,99.90
2018-05-26T21:59:20.962Z,99.90
2018-05-26T22:01:49.244Z,99.90
2018-05-26T22:04:17.511Z,99.90
2018-05-26T22:06:45.013Z,99.90
2018-05-26T22:09:12.499Z,99.90
2018-05-26T22:11:40.774Z,99.90
2018-05-26T22:14:08.267Z,99.90
2018-05-26T22:16:35.778Z,99.90
2018-05-26T22:19:03.387Z,99.90
2018-05-26T22:21:31.718Z,99.90
2018-05-26T22:23:59.226Z,99.90
2018-05-26T22:26:27.492Z,99.90
2018-05-26T22:28:54.978Z,99.90
2018-05-26T22:31:22.485Z,99.90
2018-05-26T22:33:49.969Z,99.90
2018-05-26T22:36:17.457Z,99.90
2018-05-26T22:38:44.976Z,99.90
2018-05-26T22:41:12.482Z,99.90
2018-05-26T22:43:39.982Z,99.90
2018-05-26T22:46:07.526Z,99.90
2018-05-26T22:48:35.015Z,99.90
2018-05-26T22:51:02.576Z,99.90
2018-05-26T22:53:30.902Z,99.90
2018-05-26T22:55:58.395Z,99.90
2018-05-26T22:58:26.652Z,99.90
2018-05-26T23:00:54.150Z,99.90
2018-05-26T23:03:21.651Z,99.90
2018-05-26T23:05:49.173Z,99.90
2018-05-26T23:08:16.663Z,99.90
2018-05-26T23:10:52.695Z,99.90
2018-05-26T23:13:20.950Z,99.90
2018-05-26T23:15:48.446Z,99.90
2018-05-26T23:18:16.694Z,99.90
2018-05-26T23:20:44.184Z,99.90
2018-05-26T23:23:11.669Z,99.90
2018-05-26T23:25:39.158Z,99.90
2018-05-26T23:28:06.629Z,99.90
2018-05-26T23:30:34.127Z,99.90
2018-05-26T23:33:01.620Z,99.90
2018-05-26T23:35:29.131Z,99.90
2018-05-26T23:37:57.373Z,99.90
2018-05-26T23:40:24.866Z,99.90
2018-05-26T23:42:52.350Z,99.90
2018-05-26T23:45:19.839Z,99.90
2018-05-26T23:47:47.325Z,99.90
2018-05-26T23:50:15.571Z,99.90
2018-05-26T23:52:43.060Z,99.90
2018-05-26T23:55:11.308Z,99.90
2018-05-26T23:57:38.789Z,99.90
